WELCOME TO Fly Ecuador Virtual

Fly Ecuador Virtual es una organización creada con el fin de brindar una plataforma que permita a los pilotos virtuales, principalmente ecuatorianos, tener un lugar donde registrar sus horas de vuelo, sus certificados de conocimiento adquiridos, las rutas que han volado y los destinos que han visitado. Así mismo, se busca ayudar a todos los pilotos a expandir su conocimiento sobre el mundo de la aviación real y virtual por medio de publicaciones, foros y cursos en línea.
A diferencia de las aerolíneas virtuales tradicionales, Fly Ecuador Virtual no simula las operaciones de una aerolínea del mundo real en específico. Un miembro de Fly Ecuador Virtual tiene toda la libertad de volar cualquier aeronave que opere en el espacio aéreo ecuatoriano real, en cualquier ruta, sea esta nacional o internacional, IFR o VFR, aeronaves monomotor, multimotor o helicópteros. Todo esto con el objetivo de expandir las operaciones virtuales dentro del espacio aéreo ecuatoriano, creando una comunidad en la que se compartan conocimientos y experiencias que beneficien a todos sus integrantes.
El crecimiento de Fly Ecuador Virtual depende de la participación conjunta de todos sus miembros, por este motivo se incentiva la participación en línea a través de los diferentes medios descritos más adelante en este sitio web.

STATISTICS

Pilots 61
Total hours: 4359.27
Flights total 1524

LATEST FLIGHTS

CallsignPilotDepartureArrivalDateFlight Time
ECU018Luis HerediaSEQMSEMT20-10-20170.51
ECU014Rodolfo Estrella C.SEGUSEST17-10-20171.96
ECU017Jorge NajeraKSFORKSI14-10-201711.26
ECU025Antonio NuñezTNCMSEQM13-10-20173.56
ECU014Rodolfo Estrella C.SEGUSESV13-10-20170.79

NEWEST PILOTS

PilotJoined
ECU079-Vicente Torres13-07-2017
ECU077-Fernando Flores Valarezo06-07-2017
ECU078-Ricardo Guzman05-07-2017
ECU075-FREDDY RIVERA29-06-2017
ECU074-Emilio Mayhua28-06-2017

FUTURE EVENTS & METARS

EventDate
METAR
SEGU - José Joaquín de Olmedo International Airport, Guayaquil, ECU
Distance from station: N 0mi, 0km
Updated: Sun, 22-Oct-2017 3:00am PDT
Few Clouds
Few Clouds
 Wind from SW
Wind: SW 9 mph , 15 km/h
Temperature: 73°F , 23°C
Dew Point: 66°F , 19°C
Humidity: 78%
Barometer: 29.83 inHg , 1010 hPa
Clouds: Few Clouds
Visibility: 6 miles , 10 km
Cloud details: Few Clouds 1000 ft
2017/10/22 10:00 SEGU 221000Z 23008KT 9999 FEW010 23/19 Q1010 NOSIG RMK A2984
 
SEQM - Aeropuerto Internacional Mariscal Sucre, ECU
Distance from station: NE 120mi, 200km
Updated: Sun, 22-Oct-2017 3:00am PDT
Mostly Cloudy
Mostly Cloudy
 Wind from ENE
Wind: ENE 2 mph , 4 km/h
Temperature: 55°F , 13°C
Dew Point: 54°F , 12°C
Humidity: 94%
Barometer: 30.27 inHg , 1025 hPa
Clouds: Mostly Cloudy
Visibility: 6 miles , 10 km
Cloud details: Mostly Cloudy 7000 ft
2017/10/22 10:00 SEQM 221000Z 07002KT 9999 BKN070 13/12 Q1025 NOSIG RMK A3028
 
SECU - Mariscal Lamar Airpor, ECU
Distance from station: ENE 80mi, 120km
Updated: Sun, 22-Oct-2017 3:00am PDT

 Wind from N
Wind: N 3 mph , 6 km/h
2017/10/22 10:00 SECU 221000Z AUTO 36003KT 320V030 ////NDV FEW016 FEW039 BKN055 12/11 Q1025
 
SELT - Cotopaxi International Airport, ECU
Distance from station: NW 21mi, 34km
Updated: Sun, 22-Oct-2017 3:00am PDT
Mostly Cloudy
Mostly Cloudy
 Wind from N
Wind: N 2 mph , 4 km/h
Temperature: 52°F , 11°C
Dew Point: 50°F , 10°C
Humidity: 94%
Barometer: 30.39 inHg , 1029 hPa
Clouds: Mostly Cloudy
Visibility: 6 miles , 10 km
Cloud details: Partly Cloudy 1000 ft
Mostly Cloudy 3000 ft
2017/10/22 10:00 SELT 221000Z 36002KT 9999 SCT010 BKN030 11/10 Q1029
 
SEMT - Eloy Alfaro International Airport, ECU
Distance from station: SSE 70mi, 100km
Updated: Sun, 22-Oct-2017 3:00am PDT
Overcast
Overcast
 Wind from SSW
Wind: SSW 3 mph , 6 km/h
Temperature: 72°F , 22°C
Dew Point: 70°F , 21°C
Humidity: 94%
Barometer: 29.85 inHg , 1011 hPa
Clouds: Overcast
Visibility: 6 miles , 10 km
Cloud details: Overcast 2000 ft
2017/10/22 10:00 SEMT 221000Z 21003KT 9999 OVC020 22/21 Q1011

Metar display script from Saratoga-Weather.org

TWEETS

NOTAMS

NOTAMDate